Time;durP1;ratioP1;P1;durP2;ratioP2;P2;SDS_P1;SDS_P2;PMS_P1;PMS_P2;Temp;Humidity;BMP_temperature;BMP_pressure;BME280_temperature;BME280_humidity;BME280_pressure;Samples;Min_cycle;Max_cycle;Signal;HPM_P1;HPM_P2
2022/11/22 00:02:22;;;;;;;15.15;7.47;;;;;;;;;;5009988;28;20038;-82
2022/11/22 00:04:47;;;;;;;14.55;6.82;;;;;;;;;;5017287;28;20048;-83
2022/11/22 00:07:12;;;;;;;14.32;7.80;;;;;;;;;;5021378;28;20428;-82
2022/11/22 00:09:38;;;;;;;17.15;8.18;;;;;;;;;;5008685;28;20572;-82
2022/11/22 00:12:03;;;;;;;14.57;7.57;;;;;;;;;;5016765;28;20033;-82
2022/11/22 00:14:29;;;;;;;15.57;8.15;;;;;;;;;;5006592;28;20452;-82
2022/11/22 00:16:54;;;;;;;17.75;8.70;;;;;;;;;;5004483;28;20057;-82
2022/11/22 00:19:19;;;;;;;15.65;7.65;;;;;;;;;;5007976;28;20048;-83
2022/11/22 00:21:45;;;;;;;17.35;7.90;;;;;;;;;;5009741;28;20634;-82
2022/11/22 00:24:12;;;;;;;16.63;7.95;;;;;;;;;;5001135;28;20037;-82
2022/11/22 00:26:37;;;;;;;13.52;7.43;;;;;;;;;;5009041;28;20038;-82
2022/11/22 00:29:03;;;;;;;16.50;7.97;;;;;;;;;;5004882;28;20037;-81
2022/11/22 00:31:28;;;;;;;15.77;7.20;;;;;;;;;;5003613;28;20029;-82
2022/11/22 00:33:53;;;;;;;17.50;7.75;;;;;;;;;;5008840;28;20056;-82
2022/11/22 00:36:19;;;;;;;13.23;6.65;;;;;;;;;;5015797;28;20487;-82
2022/11/22 00:38:44;;;;;;;13.63;7.10;;;;;;;;;;5001636;28;20030;-82
2022/11/22 00:41:13;;;;;;;15.32;8.05;;;;;;;;;;5009906;28;20083;-81
2022/11/22 00:43:38;;;;;;;14.20;8.07;;;;;;;;;;5010579;28;20818;-82
2022/11/22 00:46:03;;;;;;;17.13;7.63;;;;;;;;;;5001890;28;20048;-82
2022/11/22 00:48:29;;;;;;;16.40;7.28;;;;;;;;;;5017054;28;20446;-83
2022/11/22 00:50:54;;;;;;;15.80;8.15;;;;;;;;;;5013603;28;20041;-82
2022/11/22 00:53:21;;;;;;;16.60;7.97;;;;;;;;;;5009856;28;20063;-82
2022/11/22 00:55:46;;;;;;;16.75;8.38;;;;;;;;;;5008371;28;20037;-82
2022/11/22 00:58:12;;;;;;;14.65;7.53;;;;;;;;;;5012430;28;20396;-82
2022/11/22 01:00:37;;;;;;;17.95;7.88;;;;;;;;;;5000099;28;20083;-82
2022/11/22 01:03:05;;;;;;;16.27;8.02;;;;;;;;;;5003327;28;20041;-82
2022/11/22 01:05:31;;;;;;;17.30;8.13;;;;;;;;;;5006391;28;20048;-82
2022/11/22 01:07:56;;;;;;;18.25;8.77;;;;;;;;;;5009841;28;20052;-82
2022/11/22 01:10:25;;;;;;;15.50;8.48;;;;;;;;;;5008076;28;20035;-83
2022/11/22 01:12:50;;;;;;;16.63;7.68;;;;;;;;;;5006853;28;20414;-83
2022/11/22 01:15:16;;;;;;;19.45;8.68;;;;;;;;;;5012340;28;20039;-83
2022/11/22 01:17:41;;;;;;;16.08;8.27;;;;;;;;;;5011340;28;20496;-83
2022/11/22 01:20:07;;;;;;;16.58;7.72;;;;;;;;;;5005978;28;20098;-83
2022/11/22 01:22:33;;;;;;;20.58;9.02;;;;;;;;;;5025827;28;20101;-83
2022/11/22 01:24:58;;;;;;;18.13;8.55;;;;;;;;;;5018374;28;20076;-82
2022/11/22 01:27:23;;;;;;;19.73;9.00;;;;;;;;;;5016905;28;20095;-83
2022/11/22 01:29:49;;;;;;;18.25;8.43;;;;;;;;;;5015905;28;20677;-82
2022/11/22 01:32:14;;;;;;;18.55;8.35;;;;;;;;;;5001336;28;20064;-82
2022/11/22 01:34:39;;;;;;;16.08;7.53;;;;;;;;;;5006967;28;21002;-83
2022/11/22 01:37:05;;;;;;;15.65;8.52;;;;;;;;;;5009210;28;20044;-83
2022/11/22 01:39:30;;;;;;;16.38;8.15;;;;;;;;;;5016643;28;20408;-83
2022/11/22 01:41:56;;;;;;;20.52;9.10;;;;;;;;;;5008897;28;20041;-83
2022/11/22 01:44:30;;;;;;;19.27;8.40;;;;;;;;;;5009415;28;20481;-83
2022/11/22 01:47:17;;;;;;;17.33;8.60;;;;;;;;;;5017626;28;20041;-83
2022/11/22 01:49:46;;;;;;;18.38;8.50;;;;;;;;;;5008582;28;20037;-82
2022/11/22 01:52:15;;;;;;;17.30;8.02;;;;;;;;;;5025284;28;20043;-83
2022/11/22 01:54:43;;;;;;;18.55;8.75;;;;;;;;;;5002274;28;20048;-83
2022/11/22 01:57:17;;;;;;;18.00;9.05;;;;;;;;;;5002078;28;20546;-83
2022/11/22 01:59:46;;;;;;;17.55;8.13;;;;;;;;;;5008517;28;20037;-83
2022/11/22 02:02:12;;;;;;;18.63;8.98;;;;;;;;;;5009437;28;20048;-83
2022/11/22 02:04:38;;;;;;;17.15;8.02;;;;;;;;;;5008495;28;20034;-83
2022/11/22 02:07:12;;;;;;;20.00;9.38;;;;;;;;;;5008237;28;20421;-82
2022/11/22 02:09:38;;;;;;;18.52;9.00;;;;;;;;;;5017271;28;20493;-83
2022/11/22 02:12:05;;;;;;;20.67;8.70;;;;;;;;;;5001551;28;20818;-83
2022/11/22 02:14:31;;;;;;;16.48;8.50;;;;;;;;;;5017457;28;20506;-83
2022/11/22 02:16:56;;;;;;;19.13;9.43;;;;;;;;;;5008762;28;20029;-84
2022/11/22 02:19:41;;;;;;;18.75;8.70;;;;;;;;;;5005177;28;20040;-83
2022/11/22 02:22:35;;;;;;;17.75;9.15;;;;;;;;;;5015371;28;20124;-83
2022/11/22 02:25:02;;;;;;;17.05;8.50;;;;;;;;;;5025197;28;20041;-83
2022/11/22 02:27:28;;;;;;;16.92;8.02;;;;;;;;;;5015421;28;20052;-83
2022/11/22 02:29:53;;;;;;;21.65;9.05;;;;;;;;;;5002932;28;20396;-83
2022/11/22 02:32:19;;;;;;;18.52;9.13;;;;;;;;;;5015723;28;20041;-83
2022/11/22 02:34:47;;;;;;;15.48;8.27;;;;;;;;;;5006694;28;20036;-83
2022/11/22 02:37:13;;;;;;;;;;;;;;;;;;5011563;28;20033;-83
2022/11/22 02:39:40;;;;;;;16.38;8.05;;;;;;;;;;5006935;28;19963;-82
2022/11/22 02:42:06;;;;;;;17.35;8.60;;;;;;;;;;5006476;28;20484;-84
2022/11/22 02:44:31;;;;;;;18.85;8.30;;;;;;;;;;5010269;28;20029;-82
2022/11/22 02:46:57;;;;;;;20.02;8.73;;;;;;;;;;5008908;28;20042;-83
2022/11/22 02:49:23;;;;;;;18.63;9.13;;;;;;;;;;5009243;28;20029;-84
2022/11/22 02:51:50;;;;;;;16.70;8.48;;;;;;;;;;4998497;28;20116;-83
2022/11/22 02:54:15;;;;;;;16.38;8.82;;;;;;;;;;5015566;28;20094;-83
2022/11/22 02:56:41;;;;;;;17.67;8.23;;;;;;;;;;5009111;28;20036;-83
2022/11/22 02:59:06;;;;;;;21.23;10.07;;;;;;;;;;5001034;28;20459;-83
2022/11/22 03:01:32;;;;;;;17.85;8.68;;;;;;;;;;5001131;28;20563;-83
2022/11/22 03:03:57;;;;;;;19.48;8.38;;;;;;;;;;5014603;28;20092;-83
2022/11/22 03:06:22;;;;;;;19.20;8.45;;;;;;;;;;5004909;28;20400;-83
2022/11/22 03:08:51;;;;;;;19.65;9.82;;;;;;;;;;5001401;28;20828;-83
2022/11/22 03:11:16;;;;;;;22.25;9.90;;;;;;;;;;5011645;28;20442;-83
2022/11/22 03:13:41;;;;;;;21.25;8.68;;;;;;;;;;4999983;28;20033;-82
2022/11/22 03:16:07;;;;;;;19.42;9.52;;;;;;;;;;5017996;28;20412;-82
2022/11/22 03:18:34;;;;;;;19.77;9.00;;;;;;;;;;5009880;28;20034;-83
2022/11/22 03:21:03;;;;;;;20.43;9.57;;;;;;;;;;5011009;28;20056;-83
2022/11/22 03:23:28;;;;;;;16.25;7.95;;;;;;;;;;5004265;28;20030;-83
2022/11/22 03:25:54;;;;;;;20.25;9.13;;;;;;;;;;5007510;28;20120;-82
2022/11/22 03:28:19;;;;;;;19.83;9.38;;;;;;;;;;5008600;28;20046;-83
2022/11/22 03:30:45;;;;;;;20.15;8.77;;;;;;;;;;5011205;28;20045;-83
2022/11/22 03:33:10;;;;;;;22.90;9.70;;;;;;;;;;5009290;28;20113;-82
2022/11/22 03:35:35;;;;;;;19.42;9.88;;;;;;;;;;5020155;28;20071;-83
2022/11/22 03:38:01;;;;;;;19.45;8.90;;;;;;;;;;5009239;28;20115;-83
2022/11/22 03:40:26;;;;;;;19.92;9.27;;;;;;;;;;5005099;28;20029;-82
2022/11/22 03:42:52;;;;;;;21.35;10.52;;;;;;;;;;5011644;28;20526;-83
2022/11/22 03:45:17;;;;;;;20.08;9.35;;;;;;;;;;5003812;28;20041;-82
2022/11/22 03:47:43;;;;;;;19.60;9.13;;;;;;;;;;5010789;28;20057;-82
2022/11/22 03:50:08;;;;;;;18.05;8.63;;;;;;;;;;5010506;28;20055;-83
2022/11/22 03:52:34;;;;;;;19.08;8.70;;;;;;;;;;5012645;28;20327;-83
2022/11/22 03:54:59;;;;;;;21.27;9.88;;;;;;;;;;5019077;28;20042;-82
2022/11/22 03:57:24;;;;;;;18.92;9.40;;;;;;;;;;5012706;28;20026;-83
2022/11/22 03:59:50;;;;;;;18.05;8.75;;;;;;;;;;5007020;28;20116;-82
2022/11/22 04:02:16;;;;;;;18.92;9.75;;;;;;;;;;5001466;28;21012;-82
2022/11/22 04:04:41;;;;;;;19.75;9.52;;;;;;;;;;5011226;28;20488;-83
2022/11/22 04:07:06;;;;;;;20.80;9.77;;;;;;;;;;5009541;28;20111;-83
2022/11/22 04:09:32;;;;;;;20.25;8.43;;;;;;;;;;5001359;28;20083;-82
2022/11/22 04:11:57;;;;;;;21.85;9.43;;;;;;;;;;5011147;28;20033;-83
2022/11/22 04:17:06;;;;;;;19.08;9.70;;;;;;;;;;5019039;28;20132;-82
2022/11/22 04:19:32;;;;;;;23.38;9.70;;;;;;;;;;5007416;28;20116;-83
2022/11/22 04:21:57;;;;;;;20.77;9.95;;;;;;;;;;5018285;28;20057;-83
2022/11/22 04:27:06;;;;;;;20.95;9.82;;;;;;;;;;5020416;28;20285;-83
2022/11/22 04:29:32;;;;;;;20.63;9.45;;;;;;;;;;5019152;28;20434;-83
2022/11/22 04:34:41;;;;;;;21.13;10.05;;;;;;;;;;5018698;28;20040;-83
2022/11/22 04:37:06;;;;;;;19.52;10.13;;;;;;;;;;4999764;28;20042;-82
2022/11/22 04:39:34;;;;;;;21.13;10.27;;;;;;;;;;5002222;28;20408;-82
2022/11/22 04:44:44;;;;;;;21.45;10.00;;;;;;;;;;5020103;28;20040;-83
2022/11/22 04:47:57;;;;;;;23.02;9.75;;;;;;;;;;5013234;28;20037;-82
2022/11/22 04:49:57;;;;;;;22.05;10.23;;;;;;;;;;5016203;28;20045;-82
2022/11/22 04:55:07;;;;;;;20.52;10.30;;;;;;;;;;5016522;28;20512;-82
2022/11/22 04:57:32;;;;;;;24.77;11.55;;;;;;;;;;5018372;28;20034;-82
2022/11/22 04:59:58;;;;;;;26.00;11.55;;;;;;;;;;5016102;28;20412;-83
2022/11/22 05:02:23;;;;;;;25.73;11.65;;;;;;;;;;4999561;28;20032;-82
2022/11/22 05:04:48;;;;;;;22.15;11.45;;;;;;;;;;5001293;28;20037;-83
2022/11/22 05:07:14;;;;;;;28.63;11.68;;;;;;;;;;5005561;28;20045;-83
2022/11/22 05:09:39;;;;;;;26.77;10.43;;;;;;;;;;5017412;28;20036;-82
2022/11/22 05:12:05;;;;;;;26.98;11.52;;;;;;;;;;5015340;28;20072;-81
2022/11/22 05:14:30;;;;;;;28.25;11.30;;;;;;;;;;5015889;28;20037;-82
2022/11/22 05:16:55;;;;;;;31.67;12.27;;;;;;;;;;5008281;28;20193;-81
2022/11/22 05:19:21;;;;;;;29.40;12.27;;;;;;;;;;5004292;28;20469;-82
2022/11/22 05:21:46;;;;;;;25.77;11.30;;;;;;;;;;5006540;28;20447;-82
2022/11/22 05:24:11;;;;;;;25.67;10.68;;;;;;;;;;5001535;28;20551;-81
2022/11/22 05:26:37;;;;;;;24.83;10.50;;;;;;;;;;5002493;28;20043;-81
2022/11/22 05:29:07;;;;;;;27.63;11.90;;;;;;;;;;5034689;28;20103;-81
2022/11/22 05:31:34;;;;;;;25.35;11.68;;;;;;;;;;5016286;28;20488;-82
2022/11/22 05:34:00;;;;;;;26.48;12.38;;;;;;;;;;5008878;28;20512;-82
2022/11/22 05:36:25;;;;;;;28.52;12.98;;;;;;;;;;5001106;28;20032;-84
2022/11/22 05:38:51;;;;;;;25.00;12.13;;;;;;;;;;5007881;28;20037;-81
2022/11/22 05:41:17;;;;;;;27.27;12.23;;;;;;;;;;4999967;28;20089;-81
2022/11/22 05:43:42;;;;;;;26.58;12.23;;;;;;;;;;5000705;28;20038;-81
2022/11/22 05:46:09;;;;;;;30.02;12.18;;;;;;;;;;5001317;28;20037;-81
2022/11/22 05:48:37;;;;;;;28.95;12.23;;;;;;;;;;5034116;28;20057;-80
2022/11/22 05:51:11;;;;;;;27.13;11.68;;;;;;;;;;4998983;28;20390;-83
2022/11/22 05:53:37;;;;;;;30.38;13.10;;;;;;;;;;5017622;28;20455;-80
2022/11/22 05:56:19;;;;;;;28.63;12.60;;;;;;;;;;5015464;28;20544;-81
2022/11/22 05:58:45;;;;;;;27.27;12.68;;;;;;;;;;5009762;28;20467;-88
2022/11/22 06:01:16;;;;;;;26.83;11.38;;;;;;;;;;4999938;28;20046;-88
2022/11/22 06:03:41;;;;;;;27.58;11.80;;;;;;;;;;5009047;28;20065;-88
2022/11/22 06:06:07;;;;;;;27.52;12.50;;;;;;;;;;5016934;28;20068;-90
2022/11/22 06:08:35;;;;;;;31.48;12.95;;;;;;;;;;5016186;28;20052;-89
2022/11/22 06:11:08;;;;;;;29.35;11.90;;;;;;;;;;5016829;28;20468;-89
2022/11/22 06:13:37;;;;;;;29.38;12.32;;;;;;;;;;5010774;28;20091;-89
2022/11/22 06:16:04;;;;;;;30.60;12.85;;;;;;;;;;4992388;28;20041;-89
2022/11/22 06:18:29;;;;;;;30.38;11.85;;;;;;;;;;5008156;28;20475;-88
2022/11/22 06:20:57;;;;;;;25.33;11.63;;;;;;;;;;5000421;28;20095;-87
2022/11/22 06:23:22;;;;;;;28.55;11.80;;;;;;;;;;5005758;28;20044;-88
2022/11/22 06:26:00;;;;;;;28.60;12.13;;;;;;;;;;5006137;28;20404;-86
2022/11/22 06:28:28;;;;;;;28.65;11.38;;;;;;;;;;4997482;28;20614;-87
2022/11/22 06:30:53;;;;;;;26.80;11.00;;;;;;;;;;5005637;28;20038;-87
2022/11/22 06:33:19;;;;;;;26.13;11.15;;;;;;;;;;5005732;28;20163;-88
2022/11/22 06:35:50;;;;;;;27.77;11.90;;;;;;;;;;4970106;28;20578;-86
2022/11/22 06:42:10;;;;;;;29.17;12.55;;;;;;;;;;4933130;28;20054;-88
2022/11/22 06:44:38;;;;;;;23.58;10.10;;;;;;;;;;4933923;28;20911;-89
2022/11/22 06:47:04;;;;;;;27.75;11.23;;;;;;;;;;4987977;28;20055;-89
2022/11/22 06:49:29;;;;;;;34.90;14.23;;;;;;;;;;5009877;28;20034;-89
2022/11/22 06:51:55;;;;;;;26.50;11.60;;;;;;;;;;5007541;28;20116;-89
2022/11/22 06:54:20;;;;;;;26.58;10.82;;;;;;;;;;5018426;28;20781;-88
2022/11/22 06:56:46;;;;;;;26.27;11.38;;;;;;;;;;5011756;28;20044;-91
2022/11/22 06:59:11;;;;;;;23.60;10.43;;;;;;;;;;5012055;28;20431;-90
2022/11/22 07:01:37;;;;;;;31.80;12.15;;;;;;;;;;5011425;28;20040;-89
2022/11/22 07:04:03;;;;;;;22.65;10.77;;;;;;;;;;5003234;28;20033;-89
2022/11/22 07:06:37;;;;;;;25.88;11.07;;;;;;;;;;5020630;28;20508;-90
2022/11/22 07:09:05;;;;;;;24.92;10.55;;;;;;;;;;4995064;28;20037;-89
2022/11/22 07:11:30;;;;;;;60.22;31.13;;;;;;;;;;5002644;28;20033;-90
2022/11/22 07:13:57;;;;;;;29.80;14.00;;;;;;;;;;5012888;28;20041;-92
2022/11/22 07:16:22;;;;;;;27.50;12.13;;;;;;;;;;4998405;28;20033;-90
2022/11/22 07:18:48;;;;;;;30.88;12.70;;;;;;;;;;5012925;28;20040;-90
2022/11/22 07:21:19;;;;;;;26.42;10.93;;;;;;;;;;5005143;28;20451;-91
2022/11/22 07:23:49;;;;;;;27.90;11.95;;;;;;;;;;5011987;28;20087;-92
2022/11/22 07:26:16;;;;;;;26.15;11.20;;;;;;;;;;5017365;28;20030;-90
2022/11/22 07:28:41;;;;;;;27.23;11.88;;;;;;;;;;5002852;28;20048;-90
2022/11/22 07:31:08;;;;;;;24.30;11.15;;;;;;;;;;5013011;28;20038;-90
2022/11/22 07:33:34;;;;;;;26.30;10.57;;;;;;;;;;5004726;28;20040;-79
2022/11/22 07:36:10;;;;;;;29.48;11.82;;;;;;;;;;5007768;28;20044;-89
2022/11/22 07:38:36;;;;;;;28.73;11.52;;;;;;;;;;5030457;28;20040;-92
2022/11/22 07:41:01;;;;;;;27.17;11.00;;;;;;;;;;5009114;28;20033;-88
2022/11/22 07:43:47;;;;;;;27.02;10.98;;;;;;;;;;5008989;28;20033;-87
2022/11/22 07:46:28;;;;;;;27.48;12.18;;;;;;;;;;4944176;28;20042;-87
2022/11/22 07:48:53;;;;;;;25.63;11.57;;;;;;;;;;4926661;28;20050;-89
2022/11/22 07:51:19;;;;;;;29.83;12.13;;;;;;;;;;4949372;28;20185;-88
2022/11/22 07:53:44;;;;;;;22.92;10.45;;;;;;;;;;4949432;28;20043;-88
2022/11/22 07:56:10;;;;;;;25.45;11.27;;;;;;;;;;4959196;28;20036;-88
2022/11/22 07:58:36;;;;;;;26.75;11.23;;;;;;;;;;4931590;28;20059;-87
2022/11/22 08:01:12;;;;;;;29.75;12.43;;;;;;;;;;4954675;28;20557;-87
2022/11/22 08:03:38;;;;;;;30.23;11.55;;;;;;;;;;4957975;28;20111;-87
2022/11/22 08:06:06;;;;;;;28.20;10.98;;;;;;;;;;4940541;28;20580;-87
2022/11/22 08:08:31;;;;;;;;;;;;;;;;;;4949291;28;20090;-87
2022/11/22 08:10:57;;;;;;;23.58;10.10;;;;;;;;;;4949141;28;20464;-86
2022/11/22 08:13:22;;;;;;;25.92;10.30;;;;;;;;;;4942786;28;20462;-88
2022/11/22 08:15:48;;;;;;;24.13;10.60;;;;;;;;;;4942596;28;20050;-87
2022/11/22 08:18:14;;;;;;;25.38;11.05;;;;;;;;;;4943656;28;20035;-88
2022/11/22 08:20:39;;;;;;;25.88;11.40;;;;;;;;;;4950452;28;20502;-86
2022/11/22 08:23:05;;;;;;;27.17;11.70;;;;;;;;;;4971427;28;20093;-87
2022/11/22 08:25:30;;;;;;;25.92;10.13;;;;;;;;;;5016914;28;20281;-88
2022/11/22 08:27:55;;;;;;;26.30;11.95;;;;;;;;;;5009993;28;20041;-88
2022/11/22 08:30:21;;;;;;;23.67;9.85;;;;;;;;;;5026648;28;20033;-85
2022/11/22 08:32:46;;;;;;;28.77;10.98;;;;;;;;;;5011144;28;20598;-86
2022/11/22 08:35:12;;;;;;;27.23;11.43;;;;;;;;;;5008132;28;20041;-85
2022/11/22 08:37:37;;;;;;;27.33;11.77;;;;;;;;;;5004072;28;20127;-85
2022/11/22 08:40:03;;;;;;;27.30;10.93;;;;;;;;;;5014061;28;20092;-86
2022/11/22 08:42:29;;;;;;;27.98;11.45;;;;;;;;;;5005477;28;20041;-86
2022/11/22 08:44:54;;;;;;;27.48;11.57;;;;;;;;;;5000296;28;20535;-86
2022/11/22 08:47:20;;;;;;;25.75;11.20;;;;;;;;;;5010688;28;20029;-86
2022/11/22 08:49:45;;;;;;;24.02;10.85;;;;;;;;;;5012271;28;20053;-87
2022/11/22 08:52:11;;;;;;;25.88;11.70;;;;;;;;;;5017673;28;20034;-87
2022/11/22 08:54:36;;;;;;;28.08;11.75;;;;;;;;;;5009129;28;20095;-87
2022/11/22 08:57:02;;;;;;;28.13;11.48;;;;;;;;;;5005211;28;20088;-87
2022/11/22 08:59:27;;;;;;;26.67;11.70;;;;;;;;;;5017528;28;20555;-87
2022/11/22 09:01:52;;;;;;;24.55;11.10;;;;;;;;;;5002604;28;20041;-85
2022/11/22 09:04:18;;;;;;;27.90;11.20;;;;;;;;;;5010300;28;20091;-84
2022/11/22 09:06:43;;;;;;;28.83;11.48;;;;;;;;;;5007456;28;20042;-86
2022/11/22 09:09:09;;;;;;;30.92;13.20;;;;;;;;;;5000623;28;20033;-86
2022/11/22 09:11:36;;;;;;;30.40;12.02;;;;;;;;;;5003591;28;20056;-86
2022/11/22 09:14:02;;;;;;;;;;;;;;;;;;5014694;28;20405;-85
2022/11/22 09:16:29;;;;;;;23.55;10.05;;;;;;;;;;5017168;28;19919;-86
2022/11/22 09:18:55;;;;;;;25.77;10.98;;;;;;;;;;5004664;28;20090;-87
2022/11/22 09:21:21;;;;;;;24.25;10.90;;;;;;;;;;5003213;28;20075;-84
2022/11/22 09:23:48;;;;;;;29.33;12.10;;;;;;;;;;5004634;28;20048;-86
2022/11/22 09:26:16;;;;;;;28.17;12.05;;;;;;;;;;4999746;28;20464;-86
2022/11/22 09:28:42;;;;;;;23.13;10.63;;;;;;;;;;5011232;28;20107;-86
2022/11/22 09:31:10;;;;;;;31.63;12.30;;;;;;;;;;5000010;28;20592;-84
2022/11/22 09:33:38;;;;;;;26.77;12.32;;;;;;;;;;5017754;28;20037;-86
2022/11/22 09:36:03;;;;;;;;;;;;;;;;;;5001877;28;20124;-86
2022/11/22 09:38:29;;;;;;;28.33;12.25;;;;;;;;;;5037023;28;20028;-86
2022/11/22 09:40:55;;;;;;;29.17;11.30;;;;;;;;;;5010565;28;20049;-87
2022/11/22 09:43:31;;;;;;;28.30;11.77;;;;;;;;;;5010941;28;20434;-87
2022/11/22 09:45:59;;;;;;;30.63;13.13;;;;;;;;;;5021936;28;20513;-87
2022/11/22 09:48:43;;;;;;;30.05;13.13;;;;;;;;;;5009767;28;20174;-86
2022/11/22 09:51:12;;;;;;;38.53;15.43;;;;;;;;;;5017583;28;20037;-87
2022/11/22 09:53:44;;;;;;;30.50;13.90;;;;;;;;;;5020688;28;20042;-88
2022/11/22 09:56:14;;;;;;;39.08;12.82;;;;;;;;;;5034115;28;20399;-87
2022/11/22 09:58:50;;;;;;;33.13;13.38;;;;;;;;;;5003269;28;20029;-86
2022/11/22 10:01:26;;;;;;;30.08;12.23;;;;;;;;;;5003219;28;20090;-86
2022/11/22 10:04:13;;;;;;;31.05;12.57;;;;;;;;;;5004756;28;20041;-85
2022/11/22 10:06:44;;;;;;;32.10;13.32;;;;;;;;;;5012261;28;20041;-87
2022/11/22 10:09:15;;;;;;;33.58;12.98;;;;;;;;;;5008608;28;20037;-86
2022/11/22 10:11:58;;;;;;;29.90;12.57;;;;;;;;;;5015837;28;20116;-86
2022/11/22 10:14:45;;;;;;;33.97;13.00;;;;;;;;;;5035744;28;20893;-86
2022/11/22 10:17:44;;;;;;;29.60;11.45;;;;;;;;;;5027885;28;20506;-86
2022/11/22 10:20:14;;;;;;;27.88;11.65;;;;;;;;;;5015321;28;20068;-86
2022/11/22 10:22:39;;;;;;;26.55;12.02;;;;;;;;;;5010357;28;20064;-86
2022/11/22 10:25:16;;;;;;;31.50;12.32;;;;;;;;;;5019132;28;20441;-87
2022/11/22 10:27:43;;;;;;;31.27;12.02;;;;;;;;;;5022702;28;20285;-87
2022/11/22 10:30:14;;;;;;;26.45;11.73;;;;;;;;;;5015656;28;20034;-86
2022/11/22 10:32:44;;;;;;;26.83;10.77;;;;;;;;;;5020885;28;20029;-86
2022/11/22 10:35:25;;;;;;;29.08;11.73;;;;;;;;;;5039183;28;20037;-87
2022/11/22 10:38:27;;;;;;;27.25;11.55;;;;;;;;;;5036161;28;20041;-86
2022/11/22 10:41:09;;;;;;;27.40;11.98;;;;;;;;;;5027244;28;20045;-86
2022/11/22 10:43:37;;;;;;;27.67;12.00;;;;;;;;;;5035094;28;20041;-87
2022/11/22 10:46:12;;;;;;;26.00;11.80;;;;;;;;;;5023749;28;21110;-86
2022/11/22 10:48:50;;;;;;;29.13;11.60;;;;;;;;;;5016739;28;20521;-87
2022/11/22 10:51:18;;;;;;;25.60;11.60;;;;;;;;;;5017893;28;20037;-86
2022/11/22 10:53:56;;;;;;;30.75;11.90;;;;;;;;;;5002145;28;20523;-86
2022/11/22 10:56:33;;;;;;;30.60;11.98;;;;;;;;;;5012315;28;20037;-87
2022/11/22 10:59:25;;;;;;;26.83;11.95;;;;;;;;;;5028256;28;20099;-86
2022/11/22 11:02:41;;;;;;;44.97;17.00;;;;;;;;;;5003994;28;20056;-86
2022/11/22 11:05:10;;;;;;;25.27;11.65;;;;;;;;;;5008858;28;20610;-85
2022/11/22 11:07:37;;;;;;;28.20;11.60;;;;;;;;;;5002687;28;20041;-86
2022/11/22 11:10:05;;;;;;;28.42;11.32;;;;;;;;;;5010437;28;20095;-87
2022/11/22 11:12:40;;;;;;;32.67;12.60;;;;;;;;;;5018449;28;20040;-86
2022/11/22 11:15:15;;;;;;;28.17;12.25;;;;;;;;;;5007626;28;20045;-87
2022/11/22 11:17:41;;;;;;;29.85;11.85;;;;;;;;;;5017243;28;20064;-86
2022/11/22 11:20:22;;;;;;;26.65;11.20;;;;;;;;;;5003966;28;20042;-87
2022/11/22 11:22:47;;;;;;;27.48;11.25;;;;;;;;;;5003292;28;20067;-86
2022/11/22 11:25:44;;;;;;;31.48;13.32;;;;;;;;;;5005059;28;20037;-87
2022/11/22 11:28:20;;;;;;;32.35;12.20;;;;;;;;;;5018388;28;20361;-85
2022/11/22 11:30:55;;;;;;;26.65;12.05;;;;;;;;;;5011274;28;21086;-86
2022/11/22 11:33:26;;;;;;;25.13;11.38;;;;;;;;;;5000966;28;20136;-86
2022/11/22 11:36:08;;;;;;;27.63;12.20;;;;;;;;;;5017078;28;20377;-86
2022/11/22 11:38:56;;;;;;;33.75;13.65;;;;;;;;;;5008027;28;20025;-86
2022/11/22 11:41:27;;;;;;;27.98;12.20;;;;;;;;;;5012944;28;20491;-86
2022/11/22 11:43:57;;;;;;;31.15;13.32;;;;;;;;;;5021217;28;20125;-86
2022/11/22 11:46:43;;;;;;;34.42;15.23;;;;;;;;;;5018701;28;20397;-87
2022/11/22 11:49:17;;;;;;;25.35;12.48;;;;;;;;;;5010558;28;20488;-87
2022/11/22 11:51:44;;;;;;;25.48;11.63;;;;;;;;;;5013902;28;20067;-87
2022/11/22 11:54:20;;;;;;;26.10;11.48;;;;;;;;;;5013043;28;20033;-86
2022/11/22 11:57:02;;;;;;;27.15;11.90;;;;;;;;;;5018863;28;20124;-86
2022/11/22 11:59:37;;;;;;;26.33;11.32;;;;;;;;;;5001473;28;20037;-85
2022/11/22 12:02:09;;;;;;;25.40;11.55;;;;;;;;;;5021204;28;20087;-86
2022/11/22 12:04:46;;;;;;;23.65;11.45;;;;;;;;;;5019120;28;20036;-86
2022/11/22 12:07:24;;;;;;;29.38;11.82;;;;;;;;;;4999152;28;20044;-86
2022/11/22 12:09:51;;;;;;;27.63;12.13;;;;;;;;;;5027503;28;20041;-86
2022/11/22 12:12:42;;;;;;;26.10;11.83;;;;;;;;;;5019269;28;20103;-87
2022/11/22 12:15:17;;;;;;;32.40;13.05;;;;;;;;;;5020843;28;20264;-86
2022/11/22 12:17:50;;;;;;;27.17;12.43;;;;;;;;;;5029375;28;20033;-87
2022/11/22 12:20:40;;;;;;;25.70;11.77;;;;;;;;;;5009731;28;20060;-86
2022/11/22 12:23:32;;;;;;;36.72;15.05;;;;;;;;;;5003260;28;20033;-87
2022/11/22 12:25:58;;;;;;;29.65;13.13;;;;;;;;;;5010738;28;20087;-86
2022/11/22 12:28:25;;;;;;;29.70;12.55;;;;;;;;;;5004185;28;20124;-87
2022/11/22 12:31:13;;;;;;;25.13;11.18;;;;;;;;;;5003864;28;20052;-86
2022/11/22 12:33:43;;;;;;;27.30;12.98;;;;;;;;;;5001627;28;20033;-86
2022/11/22 12:36:35;;;;;;;32.08;13.55;;;;;;;;;;5019344;28;20030;-87
2022/11/22 12:39:02;;;;;;;27.27;11.85;;;;;;;;;;5021832;28;20037;-86
2022/11/22 12:41:28;;;;;;;28.80;12.15;;;;;;;;;;5011680;28;20518;-86
2022/11/22 12:43:57;;;;;;;28.60;12.52;;;;;;;;;;5004684;28;20061;-87
2022/11/22 12:46:47;;;;;;;27.25;12.93;;;;;;;;;;5027219;28;20029;-87
2022/11/22 12:49:28;;;;;;;25.45;12.23;;;;;;;;;;5016966;28;20033;-86
2022/11/22 12:52:08;;;;;;;26.17;12.40;;;;;;;;;;5032076;28;20049;-86
2022/11/22 12:54:42;;;;;;;29.52;12.35;;;;;;;;;;5025570;28;20037;-87
2022/11/22 12:57:18;;;;;;;29.95;13.35;;;;;;;;;;5025627;28;22441;-87
2022/11/22 12:59:52;;;;;;;28.98;12.90;;;;;;;;;;5011247;28;20029;-87
2022/11/22 13:02:26;;;;;;;30.58;12.57;;;;;;;;;;5002914;28;20044;-86
2022/11/22 13:05:21;;;;;;;26.27;11.68;;;;;;;;;;5037009;28;20522;-86
2022/11/22 13:08:13;;;;;;;23.38;11.23;;;;;;;;;;5011226;28;20049;-86
2022/11/22 13:10:47;;;;;;;26.98;12.50;;;;;;;;;;4994892;28;20129;-88
2022/11/22 13:13:40;;;;;;;28.10;11.68;;;;;;;;;;5010429;28;20036;-87
2022/11/22 13:16:11;;;;;;;28.88;12.30;;;;;;;;;;5017595;28;20116;-86
2022/11/22 13:18:39;;;;;;;28.08;12.63;;;;;;;;;;5020990;28;20378;-86
2022/11/22 13:21:35;;;;;;;29.52;12.40;;;;;;;;;;5017017;28;20499;-86
2022/11/22 13:24:17;;;;;;;24.95;11.63;;;;;;;;;;5000213;28;20116;-87
2022/11/22 13:26:51;;;;;;;23.85;11.23;;;;;;;;;;5025995;28;20033;-86
2022/11/22 13:29:25;;;;;;;25.85;12.10;;;;;;;;;;5027438;28;20358;-87
2022/11/22 13:31:59;;;;;;;26.58;12.77;;;;;;;;;;4997580;28;20034;-86
2022/11/22 13:34:25;;;;;;;30.10;13.00;;;;;;;;;;5014985;28;20056;-86
2022/11/22 13:36:50;;;;;;;31.95;13.40;;;;;;;;;;5014898;28;20029;-87
2022/11/22 13:39:20;;;;;;;27.48;11.32;;;;;;;;;;5010162;28;20064;-86
2022/11/22 13:42:00;;;;;;;30.08;12.45;;;;;;;;;;5016820;28;20056;-87
2022/11/22 13:44:33;;;;;;;27.70;11.80;;;;;;;;;;5005564;28;20510;-86
2022/11/22 13:47:03;;;;;;;29.38;12.43;;;;;;;;;;4998396;28;20653;-87
2022/11/22 13:49:43;;;;;;;28.30;12.02;;;;;;;;;;5010574;28;20041;-86
2022/11/22 13:52:48;;;;;;;29.05;12.18;;;;;;;;;;5004452;28;20049;-84
2022/11/22 13:55:40;;;;;;;25.58;12.35;;;;;;;;;;5024914;28;20091;-82
2022/11/22 13:58:23;;;;;;;35.97;14.70;;;;;;;;;;5001530;28;20492;-83
2022/11/22 14:00:50;;;;;;;31.00;15.18;;;;;;;;;;5024717;28;20132;-84
2022/11/22 14:03:15;;;;;;;30.80;13.02;;;;;;;;;;5002958;28;20040;-85
2022/11/22 14:05:46;;;;;;;28.23;12.77;;;;;;;;;;5031226;28;20041;-87
2022/11/22 14:08:35;;;;;;;30.35;13.80;;;;;;;;;;5006411;28;20052;-87
2022/11/22 14:11:05;;;;;;;24.17;11.30;;;;;;;;;;5005178;28;20488;-88
2022/11/22 14:14:03;;;;;;;25.45;11.52;;;;;;;;;;5016363;28;20496;-82
2022/11/22 14:16:37;;;;;;;25.02;11.77;;;;;;;;;;5023003;28;20177;-82
2022/11/22 14:19:40;;;;;;;29.92;12.27;;;;;;;;;;5031666;28;20044;-82
2022/11/22 14:22:52;;;;;;;23.75;11.60;;;;;;;;;;5014661;28;20113;-82
2022/11/22 14:25:55;;;;;;;26.23;12.10;;;;;;;;;;4974233;28;20374;-82
2022/11/22 14:28:38;;;;;;;27.42;11.35;;;;;;;;;;5015383;28;20451;-82
2022/11/22 14:31:25;;;;;;;27.40;11.88;;;;;;;;;;5012156;28;20633;-81
2022/11/22 14:34:14;;;;;;;26.13;11.52;;;;;;;;;;4996793;28;20037;-82
2022/11/22 14:36:39;;;;;;;26.00;11.70;;;;;;;;;;5023167;28;20107;-82
2022/11/22 14:39:42;;;;;;;24.38;11.65;;;;;;;;;;5007920;28;20048;-82
2022/11/22 14:42:36;;;;;;;28.13;12.52;;;;;;;;;;5021854;28;20048;-82
2022/11/22 14:45:10;;;;;;;23.95;11.52;;;;;;;;;;5015873;28;20047;-82
2022/11/22 14:47:41;;;;;;;25.52;12.38;;;;;;;;;;5030844;28;20033;-83
2022/11/22 14:50:36;;;;;;;29.88;12.40;;;;;;;;;;5012055;28;20030;-83
2022/11/22 14:53:27;;;;;;;25.20;12.50;;;;;;;;;;5011961;28;20074;-82
2022/11/22 14:55:57;;;;;;;28.73;12.13;;;;;;;;;;5005911;28;20076;-82
2022/11/22 14:58:27;;;;;;;23.10;11.63;;;;;;;;;;4999502;28;20033;-83
2022/11/22 15:01:13;;;;;;;25.27;12.15;;;;;;;;;;5006661;28;20036;-83
2022/11/22 15:03:53;;;;;;;26.25;12.63;;;;;;;;;;5022268;28;20045;-83